sensor_id;sensor_type;location;lat;lon;timestamp;temperature;humidity
15481;DHT22;7842;50.904;6.670;2023-05-29T00:02:16;16.30;99.90
15481;DHT22;7842;50.904;6.670;2023-05-29T00:04:42;16.20;99.90
15481;DHT22;7842;50.904;6.670;2023-05-29T00:07:08;16.30;99.90
15481;DHT22;7842;50.904;6.670;2023-05-29T00:09:33;16.20;99.90
15481;DHT22;7842;50.904;6.670;2023-05-29T00:11:59;16.20;99.90
15481;DHT22;7842;50.904;6.670;2023-05-29T00:14:26;16.00;99.90
15481;DHT22;7842;50.904;6.670;2023-05-29T00:16:52;16.00;99.90
15481;DHT22;7842;50.904;6.670;2023-05-29T00:19:17;15.90;99.90
15481;DHT22;7842;50.904;6.670;2023-05-29T00:21:44;15.80;99.90
15481;DHT22;7842;50.904;6.670;2023-05-29T00:24:14;15.80;99.90
15481;DHT22;7842;50.904;6.670;2023-05-29T00:26:39;15.70;99.90
15481;DHT22;7842;50.904;6.670;2023-05-29T00:29:05;15.70;99.90
15481;DHT22;7842;50.904;6.670;2023-05-29T00:31:30;17.80;99.90
15481;DHT22;7842;50.904;6.670;2023-05-29T00:33:56;15.60;99.90
15481;DHT22;7842;50.904;6.670;2023-05-29T00:36:22;16.30;99.90
15481;DHT22;7842;50.904;6.670;2023-05-29T00:38:47;17.00;99.90
15481;DHT22;7842;50.904;6.670;2023-05-29T00:41:14;15.50;99.90
15481;DHT22;7842;50.904;6.670;2023-05-29T00:43:43;15.40;99.90
15481;DHT22;7842;50.904;6.670;2023-05-29T00:46:13;15.40;99.90
15481;DHT22;7842;50.904;6.670;2023-05-29T00:48:41;17.10;99.90
15481;DHT22;7842;50.904;6.670;2023-05-29T00:51:08;15.20;99.90
15481;DHT22;7842;50.904;6.670;2023-05-29T00:53:34;15.40;99.90
15481;DHT22;7842;50.904;6.670;2023-05-29T00:56:00;15.20;99.90
15481;DHT22;7842;50.904;6.670;2023-05-29T00:58:26;15.30;99.90
15481;DHT22;7842;50.904;6.670;2023-05-29T01:00:52;15.30;99.90
15481;DHT22;7842;50.904;6.670;2023-05-29T01:03:19;15.20;99.90
15481;DHT22;7842;50.904;6.670;2023-05-29T01:05:45;15.00;99.90
15481;DHT22;7842;50.904;6.670;2023-05-29T01:08:12;14.90;99.90
15481;DHT22;7842;50.904;6.670;2023-05-29T01:10:38;15.90;99.90
15481;DHT22;7842;50.904;6.670;2023-05-29T01:13:11;14.80;99.90
15481;DHT22;7842;50.904;6.670;2023-05-29T01:15:57;14.70;99.90
15481;DHT22;7842;50.904;6.670;2023-05-29T01:18:31;14.60;99.90
15481;DHT22;7842;50.904;6.670;2023-05-29T01:21:06;14.60;99.90
15481;DHT22;7842;50.904;6.670;2023-05-29T01:24:02;14.70;99.90
15481;DHT22;7842;50.904;6.670;2023-05-29T01:29:19;14.50;99.90
15481;DHT22;7842;50.904;6.670;2023-05-29T01:31:48;14.40;99.90
15481;DHT22;7842;50.904;6.670;2023-05-29T01:34:19;14.40;99.90
15481;DHT22;7842;50.904;6.670;2023-05-29T01:36:46;14.40;99.90
15481;DHT22;7842;50.904;6.670;2023-05-29T01:39:12;14.40;99.90
15481;DHT22;7842;50.904;6.670;2023-05-29T01:41:39;14.40;99.90
15481;DHT22;7842;50.904;6.670;2023-05-29T01:44:06;14.40;99.90
15481;DHT22;7842;50.904;6.670;2023-05-29T01:46:37;14.30;99.90
15481;DHT22;7842;50.904;6.670;2023-05-29T01:49:03;14.30;99.90
15481;DHT22;7842;50.904;6.670;2023-05-29T01:51:29;14.30;99.90
15481;DHT22;7842;50.904;6.670;2023-05-29T01:53:57;15.60;99.90
15481;DHT22;7842;50.904;6.670;2023-05-29T01:56:24;16.20;99.90
15481;DHT22;7842;50.904;6.670;2023-05-29T01:58:51;14.20;99.90
15481;DHT22;7842;50.904;6.670;2023-05-29T02:01:17;14.90;99.90
15481;DHT22;7842;50.904;6.670;2023-05-29T02:03:42;15.30;99.90
15481;DHT22;7842;50.904;6.670;2023-05-29T02:06:08;15.10;99.90
15481;DHT22;7842;50.904;6.670;2023-05-29T02:08:33;16.20;99.90
15481;DHT22;7842;50.904;6.670;2023-05-29T02:10:59;15.70;99.90
15481;DHT22;7842;50.904;6.670;2023-05-29T02:13:25;13.80;99.90
15481;DHT22;7842;50.904;6.670;2023-05-29T02:15:50;13.80;99.90
15481;DHT22;7842;50.904;6.670;2023-05-29T02:18:16;13.80;99.90
15481;DHT22;7842;50.904;6.670;2023-05-29T02:20:45;13.80;99.90
15481;DHT22;7842;50.904;6.670;2023-05-29T02:23:12;13.80;99.90
15481;DHT22;7842;50.904;6.670;2023-05-29T02:25:37;13.70;99.90
15481;DHT22;7842;50.904;6.670;2023-05-29T02:28:04;13.60;99.90
15481;DHT22;7842;50.904;6.670;2023-05-29T02:30:30;14.00;99.90
15481;DHT22;7842;50.904;6.670;2023-05-29T02:32:56;13.50;99.90
15481;DHT22;7842;50.904;6.670;2023-05-29T02:35:21;14.90;99.90
15481;DHT22;7842;50.904;6.670;2023-05-29T02:37:51;15.50;99.90
15481;DHT22;7842;50.904;6.670;2023-05-29T02:40:17;13.50;99.90
15481;DHT22;7842;50.904;6.670;2023-05-29T02:47:36;13.40;99.90
15481;DHT22;7842;50.904;6.670;2023-05-29T02:50:03;13.30;99.90
15481;DHT22;7842;50.904;6.670;2023-05-29T02:57:22;13.20;99.90
15481;DHT22;7842;50.904;6.670;2023-05-29T02:59:48;13.10;99.90
15481;DHT22;7842;50.904;6.670;2023-05-29T03:02:14;13.10;99.90
15481;DHT22;7842;50.904;6.670;2023-05-29T03:04:40;13.10;99.90
15481;DHT22;7842;50.904;6.670;2023-05-29T03:07:05;13.00;99.90
15481;DHT22;7842;50.904;6.670;2023-05-29T03:14:26;12.80;99.90
15481;DHT22;7842;50.904;6.670;2023-05-29T03:19:18;12.70;99.90
15481;DHT22;7842;50.904;6.670;2023-05-29T03:21:44;14.90;99.90
15481;DHT22;7842;50.904;6.670;2023-05-29T03:24:10;13.00;99.90
15481;DHT22;7842;50.904;6.670;2023-05-29T03:26:36;12.60;99.90
15481;DHT22;7842;50.904;6.670;2023-05-29T03:29:02;14.20;99.90
15481;DHT22;7842;50.904;6.670;2023-05-29T03:31:28;13.30;99.90
15481;DHT22;7842;50.904;6.670;2023-05-29T03:33:53;12.70;99.90
15481;DHT22;7842;50.904;6.670;2023-05-29T03:36:19;13.50;99.90
15481;DHT22;7842;50.904;6.670;2023-05-29T03:38:45;12.40;99.90
15481;DHT22;7842;50.904;6.670;2023-05-29T03:41:11;12.30;99.90
15481;DHT22;7842;50.904;6.670;2023-05-29T03:43:37;12.60;99.90
15481;DHT22;7842;50.904;6.670;2023-05-29T03:46:05;13.30;99.90
15481;DHT22;7842;50.904;6.670;2023-05-29T03:48:30;12.40;99.90
15481;DHT22;7842;50.904;6.670;2023-05-29T03:50:56;13.40;99.90
15481;DHT22;7842;50.904;6.670;2023-05-29T03:53:21;13.70;99.90
15481;DHT22;7842;50.904;6.670;2023-05-29T03:55:47;12.40;99.90
15481;DHT22;7842;50.904;6.670;2023-05-29T03:58:13;12.30;99.90
15481;DHT22;7842;50.904;6.670;2023-05-29T04:00:39;12.40;99.90
15481;DHT22;7842;50.904;6.670;2023-05-29T04:03:05;12.50;99.90
15481;DHT22;7842;50.904;6.670;2023-05-29T04:05:31;12.60;99.90
15481;DHT22;7842;50.904;6.670;2023-05-29T04:07:57;12.70;99.90
15481;DHT22;7842;50.904;6.670;2023-05-29T04:10:22;12.70;99.90
15481;DHT22;7842;50.904;6.670;2023-05-29T04:12:49;13.20;99.90
15481;DHT22;7842;50.904;6.670;2023-05-29T04:15:17;13.40;99.90
15481;DHT22;7842;50.904;6.670;2023-05-29T04:17:43;13.80;99.90
15481;DHT22;7842;50.904;6.670;2023-05-29T04:20:08;13.60;99.90
15481;DHT22;7842;50.904;6.670;2023-05-29T04:22:37;13.40;99.90
15481;DHT22;7842;50.904;6.670;2023-05-29T04:25:04;13.60;99.90
15481;DHT22;7842;50.904;6.670;2023-05-29T04:27:30;13.50;99.90
15481;DHT22;7842;50.904;6.670;2023-05-29T04:29:58;13.60;99.90
15481;DHT22;7842;50.904;6.670;2023-05-29T04:32:23;14.40;99.90
15481;DHT22;7842;50.904;6.670;2023-05-29T04:34:49;13.90;99.90
15481;DHT22;7842;50.904;6.670;2023-05-29T04:37:16;16.20;99.90
15481;DHT22;7842;50.904;6.670;2023-05-29T04:39:42;14.80;99.90
15481;DHT22;7842;50.904;6.670;2023-05-29T04:42:08;15.40;99.90
15481;DHT22;7842;50.904;6.670;2023-05-29T04:44:34;15.70;99.90
15481;DHT22;7842;50.904;6.670;2023-05-29T04:46:59;14.60;99.90
15481;DHT22;7842;50.904;6.670;2023-05-29T04:49:28;15.00;99.90
15481;DHT22;7842;50.904;6.670;2023-05-29T04:51:54;15.10;99.90
15481;DHT22;7842;50.904;6.670;2023-05-29T04:54:21;14.80;99.90
15481;DHT22;7842;50.904;6.670;2023-05-29T04:56:47;15.30;99.90
15481;DHT22;7842;50.904;6.670;2023-05-29T04:59:13;16.10;99.90
15481;DHT22;7842;50.904;6.670;2023-05-29T05:01:39;16.40;99.90
15481;DHT22;7842;50.904;6.670;2023-05-29T05:04:04;16.10;99.90
15481;DHT22;7842;50.904;6.670;2023-05-29T05:06:30;16.60;99.90
15481;DHT22;7842;50.904;6.670;2023-05-29T05:08:56;17.00;99.90
15481;DHT22;7842;50.904;6.670;2023-05-29T05:11:22;16.50;99.90
15481;DHT22;7842;50.904;6.670;2023-05-29T05:13:49;17.50;99.90
15481;DHT22;7842;50.904;6.670;2023-05-29T05:16:15;16.50;99.90
15481;DHT22;7842;50.904;6.670;2023-05-29T05:18:43;16.70;99.90
15481;DHT22;7842;50.904;6.670;2023-05-29T05:21:08;16.80;99.90
15481;DHT22;7842;50.904;6.670;2023-05-29T05:23:34;17.30;99.90
15481;DHT22;7842;50.904;6.670;2023-05-29T05:26:00;17.00;99.90
15481;DHT22;7842;50.904;6.670;2023-05-29T05:28:25;16.60;99.90
15481;DHT22;7842;50.904;6.670;2023-05-29T05:30:51;17.40;99.90
15481;DHT22;7842;50.904;6.670;2023-05-29T05:33:17;18.40;99.90
15481;DHT22;7842;50.904;6.670;2023-05-29T05:35:43;17.40;99.90
15481;DHT22;7842;50.904;6.670;2023-05-29T05:38:08;17.50;99.90
15481;DHT22;7842;50.904;6.670;2023-05-29T05:40:34;17.30;99.90
15481;DHT22;7842;50.904;6.670;2023-05-29T05:43:00;17.80;99.90
15481;DHT22;7842;50.904;6.670;2023-05-29T05:45:26;17.50;99.90
15481;DHT22;7842;50.904;6.670;2023-05-29T05:47:51;17.80;99.90
15481;DHT22;7842;50.904;6.670;2023-05-29T05:50:17;19.70;99.90
15481;DHT22;7842;50.904;6.670;2023-05-29T05:52:42;17.70;99.90
15481;DHT22;7842;50.904;6.670;2023-05-29T05:55:08;19.30;99.90
15481;DHT22;7842;50.904;6.670;2023-05-29T05:57:34;18.00;99.90
15481;DHT22;7842;50.904;6.670;2023-05-29T06:00:02;18.10;99.90
15481;DHT22;7842;50.904;6.670;2023-05-29T06:02:30;18.20;99.90
15481;DHT22;7842;50.904;6.670;2023-05-29T06:04:55;18.10;99.90
15481;DHT22;7842;50.904;6.670;2023-05-29T06:07:21;17.50;99.90
15481;DHT22;7842;50.904;6.670;2023-05-29T06:09:47;17.50;99.90
15481;DHT22;7842;50.904;6.670;2023-05-29T06:12:12;17.30;99.90
15481;DHT22;7842;50.904;6.670;2023-05-29T06:14:38;18.20;99.90
15481;DHT22;7842;50.904;6.670;2023-05-29T06:17:04;18.10;99.90
15481;DHT22;7842;50.904;6.670;2023-05-29T06:21:55;17.70;99.90
15481;DHT22;7842;50.904;6.670;2023-05-29T06:24:21;17.80;99.90
15481;DHT22;7842;50.904;6.670;2023-05-29T06:36:31;17.80;99.90
15481;DHT22;7842;50.904;6.670;2023-05-29T06:46:17;17.40;99.90
15481;DHT22;7842;50.904;6.670;2023-05-29T06:53:38;17.30;99.90
15481;DHT22;7842;50.904;6.670;2023-05-29T07:05:52;17.00;99.90
15481;DHT22;7842;50.904;6.670;2023-05-29T07:08:18;17.30;99.90
15481;DHT22;7842;50.904;6.670;2023-05-29T07:10:44;17.70;99.90
15481;DHT22;7842;50.904;6.670;2023-05-29T07:13:10;17.60;99.90
15481;DHT22;7842;50.904;6.670;2023-05-29T07:15:37;17.20;99.90
15481;DHT22;7842;50.904;6.670;2023-05-29T07:18:03;16.90;99.90
15481;DHT22;7842;50.904;6.670;2023-05-29T07:20:28;16.60;99.90
15481;DHT22;7842;50.904;6.670;2023-05-29T07:22:54;16.40;99.90
15481;DHT22;7842;50.904;6.670;2023-05-29T07:25:19;16.40;99.90
15481;DHT22;7842;50.904;6.670;2023-05-29T07:27:45;16.60;99.90
15481;DHT22;7842;50.904;6.670;2023-05-29T07:30:11;16.60;99.90
15481;DHT22;7842;50.904;6.670;2023-05-29T07:32:37;16.60;99.90
15481;DHT22;7842;50.904;6.670;2023-05-29T07:35:03;16.70;99.90
15481;DHT22;7842;50.904;6.670;2023-05-29T07:37:29;16.70;99.90
15481;DHT22;7842;50.904;6.670;2023-05-29T07:39:55;17.00;99.90
15481;DHT22;7842;50.904;6.670;2023-05-29T07:42:21;17.00;99.90
15481;DHT22;7842;50.904;6.670;2023-05-29T07:44:46;17.00;99.90
15481;DHT22;7842;50.904;6.670;2023-05-29T07:47:13;17.00;99.90
15481;DHT22;7842;50.904;6.670;2023-05-29T07:49:39;16.70;99.90
15481;DHT22;7842;50.904;6.670;2023-05-29T07:52:05;16.70;99.90
15481;DHT22;7842;50.904;6.670;2023-05-29T07:54:31;17.20;99.90
15481;DHT22;7842;50.904;6.670;2023-05-29T07:56:58;16.70;99.90
15481;DHT22;7842;50.904;6.670;2023-05-29T07:59:25;17.00;99.90
15481;DHT22;7842;50.904;6.670;2023-05-29T08:01:50;17.20;99.90
15481;DHT22;7842;50.904;6.670;2023-05-29T08:04:16;17.20;99.90
15481;DHT22;7842;50.904;6.670;2023-05-29T08:11:36;17.60;99.90
15481;DHT22;7842;50.904;6.670;2023-05-29T08:16:28;17.90;99.90
15481;DHT22;7842;50.904;6.670;2023-05-29T08:26:12;17.40;99.90
15481;DHT22;7842;50.904;6.670;2023-05-29T08:28:38;17.40;99.90
15481;DHT22;7842;50.904;6.670;2023-05-29T08:31:04;17.40;99.90
15481;DHT22;7842;50.904;6.670;2023-05-29T08:33:30;17.30;99.90
15481;DHT22;7842;50.904;6.670;2023-05-29T08:35:58;17.40;99.90
15481;DHT22;7842;50.904;6.670;2023-05-29T08:38:24;17.60;99.90
15481;DHT22;7842;50.904;6.670;2023-05-29T08:40:51;17.30;99.90
15481;DHT22;7842;50.904;6.670;2023-05-29T08:43:23;17.40;99.90
15481;DHT22;7842;50.904;6.670;2023-05-29T09:03:08;17.90;99.90
15481;DHT22;7842;50.904;6.670;2023-05-29T09:05:35;17.80;99.90
15481;DHT22;7842;50.904;6.670;2023-05-29T09:08:05;17.80;99.90
15481;DHT22;7842;50.904;6.670;2023-05-29T09:12:58;17.70;99.90
15481;DHT22;7842;50.904;6.670;2023-05-29T09:15:24;17.90;99.90
15481;DHT22;7842;50.904;6.670;2023-05-29T09:17:56;18.20;99.90
15481;DHT22;7842;50.904;6.670;2023-05-29T09:20:23;18.10;99.90
15481;DHT22;7842;50.904;6.670;2023-05-29T09:23:03;18.30;99.90
15481;DHT22;7842;50.904;6.670;2023-05-29T09:25:31;18.40;99.90
15481;DHT22;7842;50.904;6.670;2023-05-29T09:28:03;18.20;99.90
15481;DHT22;7842;50.904;6.670;2023-05-29T09:30:42;18.40;99.90
15481;DHT22;7842;50.904;6.670;2023-05-29T09:35:43;18.60;99.90
15481;DHT22;7842;50.904;6.670;2023-05-29T09:38:15;18.30;99.90
15481;DHT22;7842;50.904;6.670;2023-05-29T09:40:44;18.30;99.90
15481;DHT22;7842;50.904;6.670;2023-05-29T09:45:41;18.10;99.90
15481;DHT22;7842;50.904;6.670;2023-05-29T09:48:14;18.00;99.90
15481;DHT22;7842;50.904;6.670;2023-05-29T09:50:40;18.50;99.90
15481;DHT22;7842;50.904;6.670;2023-05-29T09:53:17;18.80;99.90
15481;DHT22;7842;50.904;6.670;2023-05-29T09:55:48;19.00;99.90
15481;DHT22;7842;50.904;6.670;2023-05-29T09:58:17;19.00;99.90
15481;DHT22;7842;50.904;6.670;2023-05-29T10:00:46;18.80;99.90
15481;DHT22;7842;50.904;6.670;2023-05-29T10:03:13;18.90;99.90
15481;DHT22;7842;50.904;6.670;2023-05-29T10:05:40;18.80;99.90
15481;DHT22;7842;50.904;6.670;2023-05-29T10:10:34;15.20;99.90
15481;DHT22;7842;50.904;6.670;2023-05-29T10:13:03;18.60;99.90
15481;DHT22;7842;50.904;6.670;2023-05-29T10:15:32;18.60;99.90
15481;DHT22;7842;50.904;6.670;2023-05-29T10:18:11;18.60;99.90
15481;DHT22;7842;50.904;6.670;2023-05-29T10:20:39;19.00;99.90
15481;DHT22;7842;50.904;6.670;2023-05-29T10:23:08;18.80;99.90
15481;DHT22;7842;50.904;6.670;2023-05-29T10:25:36;18.90;99.90
15481;DHT22;7842;50.904;6.670;2023-05-29T10:28:02;19.00;99.90
15481;DHT22;7842;50.904;6.670;2023-05-29T10:30:34;19.20;99.90
15481;DHT22;7842;50.904;6.670;2023-05-29T10:33:12;19.30;99.90
15481;DHT22;7842;50.904;6.670;2023-05-29T10:35:47;19.10;99.90
15481;DHT22;7842;50.904;6.670;2023-05-29T10:38:17;19.40;99.90
15481;DHT22;7842;50.904;6.670;2023-05-29T10:40:44;18.90;99.90
15481;DHT22;7842;50.904;6.670;2023-05-29T10:43:33;19.40;99.90
15481;DHT22;7842;50.904;6.670;2023-05-29T10:46:00;19.40;99.90
15481;DHT22;7842;50.904;6.670;2023-05-29T10:50:55;19.10;99.90
15481;DHT22;7842;50.904;6.670;2023-05-29T10:53:31;19.20;99.90
15481;DHT22;7842;50.904;6.670;2023-05-29T10:55:59;19.30;99.90
15481;DHT22;7842;50.904;6.670;2023-05-29T10:58:26;19.70;99.90
15481;DHT22;7842;50.904;6.670;2023-05-29T11:00:53;19.40;99.90
15481;DHT22;7842;50.904;6.670;2023-05-29T11:03:25;19.10;99.90
15481;DHT22;7842;50.904;6.670;2023-05-29T11:06:05;19.30;99.90
15481;DHT22;7842;50.904;6.670;2023-05-29T11:08:53;19.40;99.90
15481;DHT22;7842;50.904;6.670;2023-05-29T11:11:33;19.50;99.90
15481;DHT22;7842;50.904;6.670;2023-05-29T11:14:05;19.40;99.90
15481;DHT22;7842;50.904;6.670;2023-05-29T11:18:58;19.50;99.90
15481;DHT22;7842;50.904;6.670;2023-05-29T11:23:51;20.00;99.90
15481;DHT22;7842;50.904;6.670;2023-05-29T11:26:19;19.60;99.90
15481;DHT22;7842;50.904;6.670;2023-05-29T11:28:46;19.50;99.90
15481;DHT22;7842;50.904;6.670;2023-05-29T11:31:12;19.60;99.90
15481;DHT22;7842;50.904;6.670;2023-05-29T11:33:40;19.70;99.90
15481;DHT22;7842;50.904;6.670;2023-05-29T11:36:09;20.00;99.90
15481;DHT22;7842;50.904;6.670;2023-05-29T11:38:36;19.90;99.90
15481;DHT22;7842;50.904;6.670;2023-05-29T11:41:04;20.00;99.90
15481;DHT22;7842;50.904;6.670;2023-05-29T11:43:31;19.60;99.90
15481;DHT22;7842;50.904;6.670;2023-05-29T11:45:57;20.00;99.90
15481;DHT22;7842;50.904;6.670;2023-05-29T11:48:23;20.30;99.90
15481;DHT22;7842;50.904;6.670;2023-05-29T11:50:49;20.10;99.90
15481;DHT22;7842;50.904;6.670;2023-05-29T11:53:15;20.10;99.90
15481;DHT22;7842;50.904;6.670;2023-05-29T11:55:41;20.20;99.90
15481;DHT22;7842;50.904;6.670;2023-05-29T12:00:35;20.30;99.90
15481;DHT22;7842;50.904;6.670;2023-05-29T12:03:02;20.30;99.90
15481;DHT22;7842;50.904;6.670;2023-05-29T12:05:30;20.10;99.90
15481;DHT22;7842;50.904;6.670;2023-05-29T12:07:56;20.10;99.90
15481;DHT22;7842;50.904;6.670;2023-05-29T12:10:23;20.40;99.90
15481;DHT22;7842;50.904;6.670;2023-05-29T12:12:53;20.60;99.90
15481;DHT22;7842;50.904;6.670;2023-05-29T12:15:20;20.60;99.90
15481;DHT22;7842;50.904;6.670;2023-05-29T12:17:50;20.60;99.90
15481;DHT22;7842;50.904;6.670;2023-05-29T12:20:17;20.50;99.90
15481;DHT22;7842;50.904;6.670;2023-05-29T12:22:45;20.50;99.90
15481;DHT22;7842;50.904;6.670;2023-05-29T12:27:45;20.60;99.90
15481;DHT22;7842;50.904;6.670;2023-05-29T12:32:41;20.50;99.90
15481;DHT22;7842;50.904;6.670;2023-05-29T12:35:15;21.20;99.90
15481;DHT22;7842;50.904;6.670;2023-05-29T12:37:56;20.90;99.90
15481;DHT22;7842;50.904;6.670;2023-05-29T12:40:30;20.60;99.90
15481;DHT22;7842;50.904;6.670;2023-05-29T12:42:58;20.40;99.90
15481;DHT22;7842;50.904;6.670;2023-05-29T12:45:26;20.50;99.90
15481;DHT22;7842;50.904;6.670;2023-05-29T12:47:54;20.70;99.90
15481;DHT22;7842;50.904;6.670;2023-05-29T12:50:20;20.40;99.90
15481;DHT22;7842;50.904;6.670;2023-05-29T12:55:26;20.80;99.90
15481;DHT22;7842;50.904;6.670;2023-05-29T12:57:52;20.80;99.90
15481;DHT22;7842;50.904;6.670;2023-05-29T13:00:22;20.70;99.90
15481;DHT22;7842;50.904;6.670;2023-05-29T13:02:48;20.60;99.90
15481;DHT22;7842;50.904;6.670;2023-05-29T13:05:15;20.50;99.90
15481;DHT22;7842;50.904;6.670;2023-05-29T13:07:42;22.00;99.90
15481;DHT22;7842;50.904;6.670;2023-05-29T13:10:08;20.50;99.90
15481;DHT22;7842;50.904;6.670;2023-05-29T13:12:35;20.30;99.90
15481;DHT22;7842;50.904;6.670;2023-05-29T13:15:04;20.60;99.90
15481;DHT22;7842;50.904;6.670;2023-05-29T13:17:31;20.50;99.90
15481;DHT22;7842;50.904;6.670;2023-05-29T13:22:23;20.80;99.90
15481;DHT22;7842;50.904;6.670;2023-05-29T13:24:49;21.30;99.90
15481;DHT22;7842;50.904;6.670;2023-05-29T13:27:14;20.80;99.90
15481;DHT22;7842;50.904;6.670;2023-05-29T13:29:42;20.80;99.90
15481;DHT22;7842;50.904;6.670;2023-05-29T13:32:08;20.70;99.90
15481;DHT22;7842;50.904;6.670;2023-05-29T13:34:36;20.80;99.90
15481;DHT22;7842;50.904;6.670;2023-05-29T13:37:05;21.00;99.90
15481;DHT22;7842;50.904;6.670;2023-05-29T13:39:34;21.30;99.90
15481;DHT22;7842;50.904;6.670;2023-05-29T13:42:00;20.90;99.90
15481;DHT22;7842;50.904;6.670;2023-05-29T13:44:26;21.20;99.90
15481;DHT22;7842;50.904;6.670;2023-05-29T13:46:55;21.20;99.90
15481;DHT22;7842;50.904;6.670;2023-05-29T13:49:25;20.90;99.90
15481;DHT22;7842;50.904;6.670;2023-05-29T13:51:51;20.70;99.90
15481;DHT22;7842;50.904;6.670;2023-05-29T13:54:20;20.80;99.90
15481;DHT22;7842;50.904;6.670;2023-05-29T13:56:46;21.30;99.90
15481;DHT22;7842;50.904;6.670;2023-05-29T13:59:12;18.00;99.90
15481;DHT22;7842;50.904;6.670;2023-05-29T14:01:38;20.80;99.90
15481;DHT22;7842;50.904;6.670;2023-05-29T14:04:04;21.20;99.90
15481;DHT22;7842;50.904;6.670;2023-05-29T14:06:30;21.00;99.90
15481;DHT22;7842;50.904;6.670;2023-05-29T14:08:59;18.40;99.90
15481;DHT22;7842;50.904;6.670;2023-05-29T14:11:25;21.20;99.90
15481;DHT22;7842;50.904;6.670;2023-05-29T14:13:52;19.50;99.90
15481;DHT22;7842;50.904;6.670;2023-05-29T14:18:46;21.00;99.90
15481;DHT22;7842;50.904;6.670;2023-05-29T14:21:16;21.00;99.90
15481;DHT22;7842;50.904;6.670;2023-05-29T14:23:45;20.60;99.90
15481;DHT22;7842;50.904;6.670;2023-05-29T14:26:14;20.70;99.90
15481;DHT22;7842;50.904;6.670;2023-05-29T14:28:40;21.00;99.90
15481;DHT22;7842;50.904;6.670;2023-05-29T14:31:06;20.80;99.90
15481;DHT22;7842;50.904;6.670;2023-05-29T14:33:32;20.60;99.90
15481;DHT22;7842;50.904;6.670;2023-05-29T14:35:58;20.70;99.90
15481;DHT22;7842;50.904;6.670;2023-05-29T14:38:24;20.90;99.90
15481;DHT22;7842;50.904;6.670;2023-05-29T14:40:50;20.90;99.90
15481;DHT22;7842;50.904;6.670;2023-05-29T14:43:15;20.80;99.90
15481;DHT22;7842;50.904;6.670;2023-05-29T14:45:41;20.70;99.90
15481;DHT22;7842;50.904;6.670;2023-05-29T14:48:07;20.50;99.90
15481;DHT22;7842;50.904;6.670;2023-05-29T14:50:32;20.70;99.90
15481;DHT22;7842;50.904;6.670;2023-05-29T14:52:58;20.70;99.90
15481;DHT22;7842;50.904;6.670;2023-05-29T14:55:24;20.80;99.90
15481;DHT22;7842;50.904;6.670;2023-05-29T14:57:49;20.80;99.90
15481;DHT22;7842;50.904;6.670;2023-05-29T15:00:15;20.60;99.90
15481;DHT22;7842;50.904;6.670;2023-05-29T15:02:45;20.70;99.90
15481;DHT22;7842;50.904;6.670;2023-05-29T15:05:14;20.60;99.90
15481;DHT22;7842;50.904;6.670;2023-05-29T15:07:39;21.10;99.90
15481;DHT22;7842;50.904;6.670;2023-05-29T15:10:08;21.50;99.90
15481;DHT22;7842;50.904;6.670;2023-05-29T15:12:40;20.00;99.90
15481;DHT22;7842;50.904;6.670;2023-05-29T15:15:09;21.60;99.90
15481;DHT22;7842;50.904;6.670;2023-05-29T15:17:35;20.90;99.90
15481;DHT22;7842;50.904;6.670;2023-05-29T15:22:29;20.70;99.90
15481;DHT22;7842;50.904;6.670;2023-05-29T15:27:27;20.70;99.90
15481;DHT22;7842;50.904;6.670;2023-05-29T15:32:34;20.60;99.90
15481;DHT22;7842;50.904;6.670;2023-05-29T15:35:00;21.10;99.90
15481;DHT22;7842;50.904;6.670;2023-05-29T15:37:29;20.60;99.90
15481;DHT22;7842;50.904;6.670;2023-05-29T15:40:15;20.50;99.90
15481;DHT22;7842;50.904;6.670;2023-05-29T15:42:48;20.60;99.90
15481;DHT22;7842;50.904;6.670;2023-05-29T15:45:17;21.10;99.90
15481;DHT22;7842;50.904;6.670;2023-05-29T15:47:45;20.80;99.90
15481;DHT22;7842;50.904;6.670;2023-05-29T15:50:11;21.40;99.90
15481;DHT22;7842;50.904;6.670;2023-05-29T15:52:39;20.60;99.90
15481;DHT22;7842;50.904;6.670;2023-05-29T15:55:09;20.60;99.90
15481;DHT22;7842;50.904;6.670;2023-05-29T15:57:43;20.60;99.90
15481;DHT22;7842;50.904;6.670;2023-05-29T16:00:13;21.20;99.90
15481;DHT22;7842;50.904;6.670;2023-05-29T16:02:42;17.30;99.90
15481;DHT22;7842;50.904;6.670;2023-05-29T16:05:11;20.30;99.90
15481;DHT22;7842;50.904;6.670;2023-05-29T16:07:37;20.20;99.90
15481;DHT22;7842;50.904;6.670;2023-05-29T16:10:11;20.00;99.90
15481;DHT22;7842;50.904;6.670;2023-05-29T16:12:41;20.70;99.90
15481;DHT22;7842;50.904;6.670;2023-05-29T16:15:07;20.10;99.90
15481;DHT22;7842;50.904;6.670;2023-05-29T16:19:59;20.10;99.90
15481;DHT22;7842;50.904;6.670;2023-05-29T16:22:27;20.20;99.90
15481;DHT22;7842;50.904;6.670;2023-05-29T16:32:19;20.10;99.90
15481;DHT22;7842;50.904;6.670;2023-05-29T16:34:45;20.60;99.90
15481;DHT22;7842;50.904;6.670;2023-05-29T16:37:21;19.10;99.90
15481;DHT22;7842;50.904;6.670;2023-05-29T16:39:50;20.70;99.90
15481;DHT22;7842;50.904;6.670;2023-05-29T16:42:16;20.90;99.90
15481;DHT22;7842;50.904;6.670;2023-05-29T16:44:42;20.50;99.90
15481;DHT22;7842;50.904;6.670;2023-05-29T16:47:08;20.50;99.90
15481;DHT22;7842;50.904;6.670;2023-05-29T16:49:34;20.60;99.90
15481;DHT22;7842;50.904;6.670;2023-05-29T16:51:59;20.60;99.90
15481;DHT22;7842;50.904;6.670;2023-05-29T16:54:25;21.70;99.90
15481;DHT22;7842;50.904;6.670;2023-05-29T16:56:51;20.30;99.90
15481;DHT22;7842;50.904;6.670;2023-05-29T16:59:16;20.30;99.90
15481;DHT22;7842;50.904;6.670;2023-05-29T17:01:42;20.30;99.90
15481;DHT22;7842;50.904;6.670;2023-05-29T17:04:08;20.20;99.90
15481;DHT22;7842;50.904;6.670;2023-05-29T17:06:35;20.30;99.90
15481;DHT22;7842;50.904;6.670;2023-05-29T17:09:02;20.20;99.90
15481;DHT22;7842;50.904;6.670;2023-05-29T17:11:29;20.30;99.90
15481;DHT22;7842;50.904;6.670;2023-05-29T17:13:54;20.20;99.90
15481;DHT22;7842;50.904;6.670;2023-05-29T17:16:20;20.20;99.90
15481;DHT22;7842;50.904;6.670;2023-05-29T17:18:46;20.40;99.90
15481;DHT22;7842;50.904;6.670;2023-05-29T17:21:11;20.20;99.90
15481;DHT22;7842;50.904;6.670;2023-05-29T17:23:37;20.00;99.90
15481;DHT22;7842;50.904;6.670;2023-05-29T17:26:03;20.20;99.90
15481;DHT22;7842;50.904;6.670;2023-05-29T17:28:28;20.30;99.90
15481;DHT22;7842;50.904;6.670;2023-05-29T17:30:54;20.40;99.90
15481;DHT22;7842;50.904;6.670;2023-05-29T17:33:20;20.40;99.90
15481;DHT22;7842;50.904;6.670;2023-05-29T17:35:45;20.20;99.90
15481;DHT22;7842;50.904;6.670;2023-05-29T17:38:11;20.00;99.90
15481;DHT22;7842;50.904;6.670;2023-05-29T17:40:37;20.00;99.90
15481;DHT22;7842;50.904;6.670;2023-05-29T17:43:02;20.10;99.90
15481;DHT22;7842;50.904;6.670;2023-05-29T17:45:29;20.00;99.90
15481;DHT22;7842;50.904;6.670;2023-05-29T17:47:55;20.00;99.90
15481;DHT22;7842;50.904;6.670;2023-05-29T17:50:23;20.10;99.90
15481;DHT22;7842;50.904;6.670;2023-05-29T17:52:49;19.90;99.90
15481;DHT22;7842;50.904;6.670;2023-05-29T17:55:14;20.00;99.90
15481;DHT22;7842;50.904;6.670;2023-05-29T17:57:40;19.90;99.90
15481;DHT22;7842;50.904;6.670;2023-05-29T18:00:06;19.70;99.90
15481;DHT22;7842;50.904;6.670;2023-05-29T18:02:33;19.70;99.90